createdAt,value
2019-04-04T00:02:56.361Z,105
2019-04-04T00:08:25.418Z,105
2019-04-04T00:13:56.341Z,105
2019-04-04T00:19:27.796Z,105
2019-04-04T00:24:57.970Z,105
2019-04-04T00:30:28.882Z,105
2019-04-04T00:36:00.620Z,105
2019-04-04T00:41:30.546Z,106
2019-04-04T00:47:01.671Z,106
2019-04-04T00:52:32.218Z,106
2019-04-04T00:58:03.091Z,106
2019-04-04T01:03:33.881Z,106
2019-04-04T01:09:04.805Z,106
2019-04-04T01:14:35.607Z,106
2019-04-04T01:20:06.518Z,106
2019-04-04T01:25:37.296Z,106
2019-04-04T01:31:08.193Z,106
2019-04-04T01:36:39.052Z,106
2019-04-04T01:42:09.947Z,106
2019-04-04T01:47:40.736Z,106
2019-04-04T01:53:11.621Z,106
2019-04-04T01:58:42.494Z,106
2019-04-04T02:04:13.342Z,106
2019-04-04T02:09:44.154Z,106
2019-04-04T02:15:15.164Z,106
2019-04-04T02:20:45.996Z,106
2019-04-04T02:26:16.803Z,106
2019-04-04T02:31:47.633Z,106
2019-04-04T02:37:20.460Z,106
2019-04-04T02:42:53.892Z,106
2019-04-04T02:48:23.120Z,106
2019-04-04T02:53:52.844Z,106
2019-04-04T02:59:22.175Z,106
2019-04-04T03:04:52.847Z,106
2019-04-04T03:10:23.670Z,106
2019-04-04T03:15:54.462Z,106
2019-04-04T03:21:25.339Z,106
2019-04-04T03:26:56.230Z,106
2019-04-04T03:32:27.020Z,106
2019-04-04T03:37:57.881Z,106
2019-04-04T03:43:28.677Z,106
2019-04-04T03:48:59.529Z,106
2019-04-04T03:54:30.416Z,106
2019-04-04T04:00:05.493Z,106
2019-04-04T04:05:35.378Z,106
2019-04-04T04:11:05.734Z,106
2019-04-04T04:16:35.815Z,106
2019-04-04T04:22:04.649Z,106
2019-04-04T04:27:35.449Z,106
2019-04-04T04:33:06.461Z,106
2019-04-04T04:38:37.323Z,106
2019-04-04T04:44:08.076Z,106
2019-04-04T04:49:38.966Z,106
2019-04-04T04:55:11.935Z,106
2019-04-04T05:00:40.619Z,106
2019-04-04T05:06:11.512Z,106
2019-04-04T05:11:42.327Z,106
2019-04-04T05:17:13.115Z,106
2019-04-04T05:22:44.023Z,106
2019-04-04T05:28:14.841Z,106
2019-04-04T05:33:45.671Z,106
2019-04-04T05:39:17.990Z,106
2019-04-04T05:44:47.349Z,106
2019-04-04T05:50:18.181Z,106
2019-04-04T05:55:49.014Z,106
2019-04-04T06:01:19.883Z,106
2019-04-04T06:06:50.787Z,106
2019-04-04T06:12:22.933Z,106
2019-04-04T06:17:52.526Z,106
2019-04-04T06:23:25.017Z,106
2019-04-04T06:28:54.320Z,106
2019-04-04T06:34:25.133Z,106
2019-04-04T06:39:58.366Z,106
2019-04-04T06:45:29.557Z,106
2019-04-04T06:50:57.879Z,106
2019-04-04T06:56:31.729Z,106
2019-04-04T07:01:59.667Z,106
2019-04-04T07:07:30.578Z,106
2019-04-04T07:13:14.726Z,105
2019-04-04T07:18:32.442Z,105
2019-04-04T07:24:03.289Z,105
2019-04-04T07:29:34.228Z,105
2019-04-04T07:35:05.097Z,105
2019-04-04T07:40:36.989Z,105
2019-04-04T07:46:15.946Z,105
2019-04-04T07:51:38.685Z,105
2019-04-04T07:57:08.616Z,105
2019-04-04T08:02:39.507Z,105
2019-04-04T08:08:10.443Z,105
2019-04-04T08:13:41.318Z,105
2019-04-04T08:19:12.261Z,105
2019-04-04T08:24:43.246Z,105
2019-04-04T08:30:14.149Z,105
2019-04-04T08:35:45.052Z,105
2019-04-04T08:41:16.000Z,105
2019-04-04T08:46:47.128Z,105
2019-04-04T08:52:20.615Z,105
2019-04-04T08:57:48.920Z,105
2019-04-04T09:03:20.646Z,105
2019-04-04T09:08:50.834Z,105
2019-04-04T09:14:21.835Z,105
2019-04-04T09:19:52.752Z,105
2019-04-04T09:25:23.754Z,105
2019-04-04T09:30:54.898Z,104
2019-04-04T09:36:25.775Z,104
2019-04-04T09:41:56.913Z,104
2019-04-04T09:47:28.096Z,104
2019-04-04T09:52:59.506Z,104
2019-04-04T09:58:30.600Z,104
2019-04-04T10:04:01.677Z,104
2019-04-04T10:09:32.954Z,104
2019-04-04T10:15:04.076Z,104
2019-04-04T10:20:35.817Z,104
2019-04-04T10:25:58.506Z,104
2019-04-04T10:31:22.245Z,104
2019-04-04T10:36:52.444Z,104
2019-04-04T10:42:23.854Z,104
2019-04-04T10:47:46.783Z,104
2019-04-04T10:53:18.031Z,104
2019-04-04T10:58:44.342Z,104
2019-04-04T11:04:09.201Z,104
2019-04-04T11:09:41.594Z,103
2019-04-04T11:15:02.226Z,103
2019-04-04T11:20:28.488Z,103
2019-04-04T11:26:00.214Z,103
2019-04-04T11:31:24.848Z,103
2019-04-04T11:36:56.681Z,103
2019-04-04T11:42:28.367Z,103
2019-04-04T11:47:53.678Z,103
2019-04-04T11:53:23.845Z,103
2019-04-04T11:58:55.597Z,103
2019-04-04T12:04:27.157Z,103
2019-04-04T12:10:07.044Z,103
2019-04-04T12:15:25.011Z,103
2019-04-04T12:20:56.171Z,103
2019-04-04T12:26:27.475Z,103
2019-04-04T12:31:51.673Z,103
2019-04-04T12:37:15.253Z,103
2019-04-04T12:42:47.084Z,103
2019-04-04T12:48:18.117Z,103
2019-04-04T12:53:42.025Z,103
2019-04-04T12:59:13.621Z,102
2019-04-04T13:04:45.491Z,102
2019-04-04T13:10:16.789Z,102
2019-04-04T13:15:48.541Z,102
2019-04-04T13:21:21.554Z,103
2019-04-04T13:26:51.901Z,102
2019-04-04T13:32:14.878Z,102
2019-04-04T13:37:46.414Z,102
2019-04-04T13:43:18.168Z,102
2019-04-04T13:48:43.493Z,102
2019-04-04T13:54:14.348Z,102
2019-04-04T13:59:39.396Z,102
2019-04-04T14:05:09.475Z,102
2019-04-04T14:10:27.994Z,102
2019-04-04T14:15:59.186Z,102
2019-04-04T14:21:23.019Z,102
2019-04-04T14:26:46.533Z,102
2019-04-04T14:32:17.586Z,102
2019-04-04T14:37:40.399Z,102
2019-04-04T14:43:11.475Z,102
2019-04-04T14:48:35.097Z,102
2019-04-04T14:54:06.228Z,102
2019-04-04T14:59:28.966Z,102
2019-04-04T15:05:00.058Z,102
2019-04-04T15:10:25.509Z,102
2019-04-04T15:15:56.535Z,102
2019-04-04T15:21:23.286Z,102
2019-04-04T15:26:54.411Z,102
2019-04-04T15:32:18.506Z,102
2019-04-04T15:37:49.597Z,101
2019-04-04T15:43:13.396Z,101
2019-04-04T15:48:44.478Z,101
2019-04-04T15:54:10.759Z,101
2019-04-04T15:59:41.954Z,101
2019-04-04T16:05:07.018Z,102
2019-04-04T16:10:38.112Z,101
2019-04-04T16:16:09.053Z,101
2019-04-04T16:21:35.723Z,101
2019-04-04T16:27:06.803Z,101
2019-04-04T16:32:37.821Z,101
2019-04-04T16:38:03.619Z,101
2019-04-04T16:43:34.725Z,102
2019-04-04T16:49:05.765Z,101
2019-04-04T16:54:29.643Z,101
2019-04-04T17:00:00.648Z,102
2019-04-04T17:05:23.878Z,102
2019-04-04T17:10:54.870Z,103
2019-04-04T17:16:25.887Z,104
2019-04-04T17:21:56.821Z,104
2019-04-04T17:27:22.459Z,105
2019-04-04T17:32:53.468Z,105
2019-04-04T17:38:24.365Z,105
2019-04-04T17:43:47.368Z,105
2019-04-04T17:49:18.083Z,105
2019-04-04T17:54:49.138Z,105
2019-04-04T18:00:19.970Z,106
2019-04-04T18:05:50.949Z,105
2019-04-04T18:11:15.775Z,105
2019-04-04T18:16:46.672Z,105
2019-04-04T18:22:20.577Z,105
2019-04-04T18:27:48.534Z,105
2019-04-04T18:33:19.928Z,105
2019-04-04T18:38:50.425Z,105
2019-04-04T18:44:13.868Z,105
2019-04-04T18:49:44.682Z,105
2019-04-04T18:55:19.799Z,106
2019-04-04T19:00:46.576Z,106
2019-04-04T19:06:17.492Z,105
2019-04-04T19:11:48.418Z,105
2019-04-04T19:17:19.322Z,105
2019-04-04T19:22:50.213Z,105
2019-04-04T19:28:21.148Z,105
2019-04-04T19:33:52.071Z,105
2019-04-04T19:39:22.927Z,105
2019-04-04T19:44:53.355Z,105
2019-04-04T19:50:19.805Z,105
2019-04-04T19:55:51.256Z,105
2019-04-04T20:01:21.642Z,105
2019-04-04T20:06:52.468Z,105
2019-04-04T20:12:23.360Z,105
2019-04-04T20:17:54.273Z,105
2019-04-04T20:23:25.186Z,105
2019-04-04T20:28:56.116Z,105
2019-04-04T20:34:26.908Z,105
2019-04-04T20:39:57.787Z,105
2019-04-04T20:45:28.622Z,105
2019-04-04T20:50:59.433Z,105
2019-04-04T20:56:31.025Z,106
2019-04-04T21:02:02.672Z,106
2019-04-04T21:07:34.281Z,106
2019-04-04T21:13:05.516Z,106
2019-04-04T21:18:36.310Z,106
2019-04-04T21:24:07.133Z,106
2019-04-04T21:29:37.863Z,106
2019-04-04T21:35:08.649Z,106
2019-04-04T21:40:39.438Z,107
2019-04-04T21:46:10.220Z,107
2019-04-04T21:51:40.946Z,106
2019-04-04T21:57:11.663Z,106
2019-04-04T22:02:42.504Z,107
2019-04-04T22:08:13.174Z,107
2019-04-04T22:13:43.970Z,107
2019-04-04T22:19:14.796Z,107
2019-04-04T22:24:45.580Z,107
2019-04-04T22:30:16.870Z,107
2019-04-04T22:35:48.414Z,107
2019-04-04T22:41:20.045Z,107
2019-04-04T22:46:51.741Z,107
2019-04-04T22:52:23.380Z,107
2019-04-04T22:57:54.957Z,107
2019-04-04T23:03:28.439Z,108
2019-04-04T23:08:58.100Z,108
2019-04-04T23:14:29.717Z,108
2019-04-04T23:20:01.297Z,108
2019-04-04T23:25:32.892Z,108
2019-04-04T23:31:04.417Z,108
2019-04-04T23:36:36.059Z,108
2019-04-04T23:42:07.346Z,108
2019-04-04T23:47:42.945Z,108
2019-04-04T23:53:08.888Z,108
2019-04-04T23:58:40.194Z,108
